Time;durP1;ratioP1;P1;durP2;ratioP2;P2;SDS_P1;SDS_P2;PMS_P1;PMS_P2;Temp;Humidity;BMP_temperature;BMP_pressure;BME280_temperature;BME280_humidity;BME280_pressure;Samples;Min_cycle;Max_cycle;Signal;HPM_P1;HPM_P2
2022/04/10 00:01:06;;;;;;;18.60;2.22;;;3.30;99.90;;;;;;4986805;28;20046;-80
2022/04/10 00:03:32;;;;;;;19.48;3.00;;;3.50;99.90;;;;;;4988211;28;20535;-81
2022/04/10 00:05:58;;;;;;;15.18;2.80;;;3.50;99.90;;;;;;4984501;28;20117;-80
2022/04/10 00:08:24;;;;;;;12.60;2.08;;;4.20;99.90;;;;;;4983783;28;20039;-81
2022/04/10 00:10:49;;;;;;;13.32;2.92;;;5.40;99.90;;;;;;4987457;28;20053;-80
2022/04/10 00:13:15;;;;;;;11.70;2.38;;;3.30;99.90;;;;;;4985523;28;20053;-81
2022/04/10 00:15:41;;;;;;;14.45;2.10;;;3.30;99.90;;;;;;4987107;28;20049;-81
2022/04/10 00:18:06;;;;;;;11.68;1.65;;;3.30;99.90;;;;;;4982464;28;20557;-81
2022/04/10 00:20:32;;;;;;;14.05;1.95;;;5.20;99.90;;;;;;4982454;28;20050;-81
2022/04/10 00:22:58;;;;;;;16.70;2.65;;;3.00;99.90;;;;;;4981695;28;20058;-81
2022/04/10 00:25:24;;;;;;;12.60;2.50;;;3.30;99.90;;;;;;4969087;28;20435;-80
2022/04/10 00:27:49;;;;;;;12.57;1.92;;;3.30;99.90;;;;;;4978626;28;20042;-81
2022/04/10 00:30:16;;;;;;;11.02;1.98;;;3.30;99.90;;;;;;4966480;28;20058;-81
2022/04/10 00:32:43;;;;;;;17.88;1.77;;;3.20;99.90;;;;;;4972879;28;20049;-79
2022/04/10 00:35:10;;;;;;;15.30;1.88;;;3.30;99.90;;;;;;4964183;28;20446;-79
2022/04/10 00:37:36;;;;;;;16.10;3.13;;;3.20;99.90;;;;;;4969497;28;20072;-81
2022/04/10 00:40:03;;;;;;;14.20;2.20;;;3.30;99.90;;;;;;4985453;28;20494;-81
2022/04/10 00:42:32;;;;;;;18.20;2.05;;;3.30;99.90;;;;;;4982180;28;20103;-81
2022/04/10 00:44:58;;;;;;;18.60;2.22;;;3.20;99.90;;;;;;4985983;28;20042;-79
2022/04/10 00:47:24;;;;;;;15.35;2.00;;;3.90;99.90;;;;;;4989102;28;20076;-79
2022/04/10 00:49:50;;;;;;;13.32;2.65;;;3.80;99.90;;;;;;4986153;28;20394;-80
2022/04/10 00:52:16;;;;;;;18.73;3.05;;;3.20;99.90;;;;;;4987908;28;20046;-80
2022/04/10 00:54:42;;;;;;;16.60;2.22;;;3.30;99.90;;;;;;4986577;28;20053;-81
2022/04/10 00:57:10;;;;;;;16.83;2.35;;;3.20;99.90;;;;;;4980218;28;20406;-81
2022/04/10 00:59:36;;;;;;;27.85;2.85;;;3.20;99.90;;;;;;4983277;28;20071;-81
2022/04/10 01:02:03;;;;;;;14.23;3.08;;;3.10;99.90;;;;;;4980746;28;20116;-80
2022/04/10 01:04:28;;;;;;;10.73;2.38;;;3.10;99.90;;;;;;4986406;28;20046;-80
2022/04/10 01:06:56;;;;;;;18.92;2.90;;;3.00;99.90;;;;;;4987224;28;20038;-81
2022/04/10 01:09:23;;;;;;;11.82;2.55;;;3.00;99.90;;;;;;4981649;28;20381;-81
2022/04/10 01:11:52;;;;;;;16.83;2.63;;;2.90;99.90;;;;;;4984036;28;20400;-81
2022/04/10 01:14:17;;;;;;;15.25;2.80;;;3.30;99.90;;;;;;4988595;28;20053;-80
2022/04/10 01:16:43;;;;;;;11.63;1.83;;;2.90;99.90;;;;;;4985975;28;20047;-81
2022/04/10 01:19:10;;;;;;;15.52;2.63;;;2.90;99.90;;;;;;4982560;28;20038;-81
2022/04/10 01:21:43;;;;;;;17.63;2.80;;;2.90;99.90;;;;;;4988530;28;20050;-81
2022/04/10 01:24:11;;;;;;;9.93;2.10;;;3.20;99.90;;;;;;4988240;28;20062;-81
2022/04/10 01:26:37;;;;;;;13.52;2.47;;;2.70;99.90;;;;;;4985408;28;20056;-81
2022/04/10 01:29:06;;;;;;;13.48;2.13;;;2.80;99.90;;;;;;4962770;28;20114;-81
2022/04/10 01:31:35;;;;;;;15.95;2.80;;;2.70;99.90;;;;;;4983292;28;20039;-80
2022/04/10 01:34:10;;;;;;;16.92;2.30;;;2.70;99.90;;;;;;4966324;28;20502;-79
2022/04/10 01:36:36;;;;;;;;;;;1.00;99.90;;;;;;4982466;28;20086;-81
2022/04/10 01:39:04;;;;;;;14.68;2.00;;;2.60;99.90;;;;;;4984985;28;19929;-81
2022/04/10 01:41:30;;;;;;;10.35;2.40;;;2.60;99.90;;;;;;4977839;28;20035;-80
2022/04/10 01:43:58;;;;;;;15.20;2.40;;;2.60;99.90;;;;;;4983696;28;20046;-81
2022/04/10 01:46:26;;;;;;;11.15;1.65;;;2.60;99.90;;;;;;4980472;28;20066;-80
2022/04/10 01:48:52;;;;;;;12.95;2.70;;;2.50;99.90;;;;;;4987187;28;20067;-81
2022/04/10 01:51:18;;;;;;;15.85;2.08;;;2.30;99.90;;;;;;4980362;28;20046;-80
2022/04/10 01:53:44;;;;;;;15.32;2.20;;;2.50;99.90;;;;;;4983296;28;20092;-80
2022/04/10 01:56:10;;;;;;;12.48;2.83;;;2.50;99.90;;;;;;4986726;28;20050;-81
2022/04/10 01:58:39;;;;;;;11.23;2.10;;;2.40;99.90;;;;;;4982934;28;20039;-82
2022/04/10 02:01:06;;;;;;;12.82;3.05;;;2.50;99.90;;;;;;4961876;28;20101;-81
2022/04/10 02:03:34;;;;;;;13.93;2.05;;;2.50;99.90;;;;;;4984945;28;20045;-81
2022/04/10 02:06:00;;;;;;;17.65;2.33;;;2.50;99.90;;;;;;4987422;28;20264;-80
2022/04/10 02:08:27;;;;;;;14.20;3.00;;;2.40;99.90;;;;;;4987039;28;20056;-81
2022/04/10 02:10:53;;;;;;;17.30;3.78;;;2.70;99.90;;;;;;4962349;28;20050;-81
2022/04/10 02:13:19;;;;;;;14.82;2.17;;;2.70;99.90;;;;;;4984965;28;20045;-81
2022/04/10 02:15:45;;;;;;;9.32;2.10;;;2.40;99.90;;;;;;4985573;28;20398;-80
2022/04/10 02:18:11;;;;;;;15.23;2.72;;;2.40;99.90;;;;;;4980057;28;20042;-81
2022/04/10 02:20:37;;;;;;;17.90;1.98;;;2.40;99.90;;;;;;4980781;28;20059;-81
2022/04/10 02:23:03;;;;;;;12.57;1.90;;;2.40;99.90;;;;;;4983019;28;20050;-80
2022/04/10 02:25:29;;;;;;;14.18;2.28;;;2.80;99.90;;;;;;4970095;28;20101;-82
2022/04/10 02:27:54;;;;;;;15.85;2.90;;;4.60;99.90;;;;;;4983317;28;20437;-80
2022/04/10 02:30:20;;;;;;;16.00;2.55;;;2.40;99.90;;;;;;4982661;28;20078;-80
2022/04/10 02:32:45;;;;;;;14.30;2.22;;;2.40;99.90;;;;;;4961059;28;20073;-81
2022/04/10 02:35:11;;;;;;;18.85;2.80;;;2.30;99.90;;;;;;4986333;28;20092;-81
2022/04/10 02:37:37;;;;;;;9.55;2.05;;;2.40;99.90;;;;;;4983528;28;20043;-81
2022/04/10 02:40:04;;;;;;;11.80;2.22;;;2.50;99.90;;;;;;4981325;28;20500;-80
2022/04/10 02:42:33;;;;;;;11.10;1.95;;;2.50;99.90;;;;;;4981215;28;20046;-81
2022/04/10 02:44:59;;;;;;;12.05;2.92;;;2.50;99.90;;;;;;4982442;28;20129;-81
2022/04/10 02:47:25;;;;;;;10.80;1.92;;;2.50;99.90;;;;;;4981715;28;20054;-80
2022/04/10 02:49:50;;;;;;;15.30;1.85;;;2.50;99.90;;;;;;4983704;28;20046;-81
2022/04/10 02:52:17;;;;;;;11.43;1.40;;;2.60;99.90;;;;;;4980937;28;20517;-80
2022/04/10 02:54:42;;;;;;;17.30;1.92;;;2.60;99.90;;;;;;4979296;28;20097;-82
2022/04/10 02:57:08;;;;;;;8.38;1.55;;;2.70;99.90;;;;;;4978632;28;20054;-79
2022/04/10 02:59:34;;;;;;;11.20;1.48;;;3.00;99.90;;;;;;4983685;28;20042;-80
2022/04/10 03:01:59;;;;;;;8.18;1.77;;;2.80;99.90;;;;;;4976607;28;20383;-80
2022/04/10 03:04:25;;;;;;;9.32;1.60;;;2.80;99.90;;;;;;4968982;28;20050;-80
2022/04/10 03:06:51;;;;;;;15.00;1.10;;;2.90;99.90;;;;;;4964287;28;20138;-81
2022/04/10 03:09:17;;;;;;;11.20;1.55;;;2.60;99.90;;;;;;4981604;28;20495;-80
2022/04/10 03:11:43;;;;;;;8.80;1.73;;;2.90;99.90;;;;;;4963548;28;20366;-81
2022/04/10 03:14:08;;;;;;;8.57;1.35;;;2.90;99.90;;;;;;4968619;28;20050;-81
2022/04/10 03:16:35;;;;;;;6.78;1.15;;;2.90;99.90;;;;;;4985486;28;20066;-81
2022/04/10 03:19:00;;;;;;;7.45;1.02;;;4.70;99.90;;;;;;4983273;28;20566;-81
2022/04/10 03:21:26;;;;;;;8.82;1.13;;;2.80;99.90;;;;;;4967545;28;21276;-81
2022/04/10 03:23:52;;;;;;;8.88;1.30;;;2.90;99.90;;;;;;4966883;28;20117;-81
2022/04/10 03:26:17;;;;;;;5.93;0.70;;;2.90;99.90;;;;;;4986350;28;20038;-81
2022/04/10 03:28:43;;;;;;;3.03;0.82;;;2.90;99.90;;;;;;4974654;28;20038;-80
2022/04/10 03:31:08;;;;;;;8.02;0.63;;;2.70;99.90;;;;;;4981265;28;20050;-81
2022/04/10 03:33:34;;;;;;;7.50;0.60;;;3.10;99.90;;;;;;4981505;28;20077;-81
2022/04/10 03:36:00;;;;;;;7.75;0.80;;;3.20;99.90;;;;;;4983801;28;20046;-81
2022/04/10 03:38:26;;;;;;;6.97;0.90;;;3.20;99.90;;;;;;4983146;28;20089;-80
2022/04/10 03:40:51;;;;;;;10.57;0.95;;;3.20;99.90;;;;;;4979282;28;20118;-81
2022/04/10 03:43:17;;;;;;;3.75;0.50;;;5.00;99.90;;;;;;4982210;28;20129;-82
2022/04/10 03:45:42;;;;;;;5.30;1.00;;;4.90;99.90;;;;;;4981939;28;20116;-80
2022/04/10 03:48:09;;;;;;;6.82;0.82;;;3.10;99.90;;;;;;4985234;28;20049;-81
2022/04/10 03:50:35;;;;;;;3.08;0.55;;;3.10;99.90;;;;;;4980636;28;20466;-81
2022/04/10 03:53:02;;;;;;;4.15;0.52;;;3.00;99.90;;;;;;4975418;28;20041;-81
2022/04/10 03:55:28;;;;;;;6.13;0.98;;;3.00;99.90;;;;;;4984853;28;20422;-80
2022/04/10 03:57:53;;;;;;;4.22;0.95;;;3.00;99.90;;;;;;4982806;28;20054;-79
2022/04/10 04:00:19;;;;;;;4.63;0.73;;;3.00;99.90;;;;;;4983795;28;20046;-81
2022/04/10 04:02:46;;;;;;;4.55;0.65;;;4.90;99.90;;;;;;4969751;28;20062;-81
2022/04/10 04:05:12;;;;;;;7.60;0.95;;;2.80;99.90;;;;;;4983828;28;20072;-81
2022/04/10 04:07:38;;;;;;;2.92;0.50;;;2.90;99.90;;;;;;4988911;28;20054;-81
2022/04/10 04:10:05;;;;;;;5.80;0.60;;;2.80;99.90;;;;;;4988623;28;20057;-81
2022/04/10 04:12:33;;;;;;;4.18;0.75;;;2.80;99.90;;;;;;4987922;28;20112;-81
2022/04/10 04:14:58;;;;;;;4.28;0.40;;;2.80;99.90;;;;;;4985166;28;20042;-81
2022/04/10 04:17:24;;;;;;;2.55;0.43;;;2.80;99.90;;;;;;4984619;28;20399;-81
2022/04/10 04:19:51;;;;;;;5.55;0.65;;;3.00;99.90;;;;;;4986184;28;20121;-81
2022/04/10 04:22:19;;;;;;;5.53;0.63;;;2.80;99.90;;;;;;4969198;28;20521;-82
2022/04/10 04:24:45;;;;;;;3.90;0.90;;;2.50;99.90;;;;;;4964476;28;20050;-81
2022/04/10 04:27:11;;;;;;;5.15;0.68;;;2.60;99.90;;;;;;4968274;28;20467;-81
2022/04/10 04:29:36;;;;;;;5.82;0.70;;;2.90;99.90;;;;;;4972928;28;20049;-81
2022/04/10 04:32:03;;;;;;;4.13;0.82;;;2.90;99.90;;;;;;4984293;28;20038;-81
2022/04/10 04:34:29;;;;;;;5.40;1.00;;;2.80;99.90;;;;;;4987585;28;20042;-81
2022/04/10 04:36:54;;;;;;;3.78;0.50;;;2.30;99.90;;;;;;4964970;28;20131;-82
2022/04/10 04:39:20;;;;;;;9.10;1.05;;;2.80;99.90;;;;;;4971124;28;20430;-81
2022/04/10 04:41:46;;;;;;;9.05;0.52;;;2.70;99.90;;;;;;4982053;28;20043;-80
2022/04/10 04:44:11;;;;;;;6.22;0.75;;;2.70;99.90;;;;;;4967754;28;20498;-82
2022/04/10 04:46:37;;;;;;;6.55;0.65;;;2.60;99.90;;;;;;4988323;28;20069;-81
2022/04/10 04:49:04;;;;;;;7.10;1.00;;;1.00;99.90;;;;;;4988399;28;20986;-81
2022/04/10 04:51:34;;;;;;;3.20;0.70;;;2.60;99.90;;;;;;4985219;28;20264;-82
2022/04/10 04:54:00;;;;;;;9.13;0.63;;;2.70;99.90;;;;;;4967705;28;20072;-82
2022/04/10 04:56:26;;;;;;;10.35;1.55;;;2.60;99.90;;;;;;4983170;28;20503;-81
2022/04/10 04:58:52;;;;;;;4.55;0.70;;;2.60;99.90;;;;;;4966944;28;20128;-81
2022/04/10 05:01:17;;;;;;;5.25;0.80;;;2.20;99.90;;;;;;4984724;28;20043;-81
2022/04/10 05:03:43;;;;;;;10.57;1.45;;;2.50;99.90;;;;;;4977477;28;20047;-81
2022/04/10 05:06:08;;;;;;;5.65;0.68;;;4.40;99.90;;;;;;4987459;28;20042;-81
2022/04/10 05:08:34;;;;;;;9.02;0.90;;;2.40;99.90;;;;;;4986134;28;20120;-81
2022/04/10 05:11:00;;;;;;;7.90;0.63;;;2.50;99.90;;;;;;4984216;28;20073;-81
2022/04/10 05:13:27;;;;;;;7.57;0.77;;;3.50;99.90;;;;;;4986457;28;20045;-81
2022/04/10 05:15:52;;;;;;;6.53;0.93;;;2.40;99.90;;;;;;4982459;28;20054;-82
2022/04/10 05:18:19;;;;;;;4.95;0.82;;;3.20;99.90;;;;;;4963610;28;20030;-81
2022/04/10 05:20:48;;;;;;;10.82;1.48;;;2.40;99.90;;;;;;4985279;28;20043;-81
2022/04/10 05:23:17;;;;;;;4.03;1.02;;;2.40;99.90;;;;;;4985630;28;20108;-81
2022/04/10 05:25:43;;;;;;;5.25;1.05;;;2.40;99.90;;;;;;4983821;28;20435;-81
2022/04/10 05:28:09;;;;;;;7.07;0.95;;;2.30;99.90;;;;;;4977312;28;20047;-81
2022/04/10 05:30:34;;;;;;;7.07;1.27;;;3.60;99.90;;;;;;4970224;28;20108;-82
2022/04/10 05:33:00;;;;;;;6.47;1.05;;;2.20;99.90;;;;;;4985979;28;20406;-84
2022/04/10 05:35:26;;;;;;;6.35;1.05;;;2.30;99.90;;;;;;4983263;28;20067;-84
2022/04/10 05:37:52;;;;;;;6.03;1.70;;;2.30;99.90;;;;;;4978045;28;20050;-83
2022/04/10 05:40:17;;;;;;;7.13;1.58;;;2.30;99.90;;;;;;4961341;28;20033;-84
2022/04/10 05:42:44;;;;;;;7.68;1.33;;;2.30;99.90;;;;;;4960872;28;20156;-84
2022/04/10 05:45:10;;;;;;;4.78;0.73;;;2.30;99.90;;;;;;5003596;28;20130;-84
2022/04/10 05:47:41;;;;;;;7.03;1.00;;;2.30;99.90;;;;;;4978591;28;20117;-84
2022/04/10 05:50:08;;;;;;;6.30;1.27;;;2.50;99.90;;;;;;4985380;28;20049;-84
2022/04/10 05:52:41;;;;;;;7.80;1.15;;;2.50;99.90;;;;;;4979463;28;20038;-83
2022/04/10 05:55:08;;;;;;;14.30;0.90;;;2.40;99.90;;;;;;4979231;28;20046;-83
2022/04/10 05:57:34;;;;;;;5.10;0.70;;;2.60;99.90;;;;;;4987314;28;20126;-84
2022/04/10 06:00:00;;;;;;;3.03;0.95;;;2.60;99.90;;;;;;4989209;28;20042;-84
2022/04/10 06:02:26;;;;;;;11.45;1.40;;;2.70;99.90;;;;;;4978315;28;20558;-83
2022/04/10 06:04:51;;;;;;;3.33;0.82;;;2.70;99.90;;;;;;4983372;28;20042;-83
2022/04/10 06:07:17;;;;;;;9.75;1.10;;;2.70;99.90;;;;;;4988043;28;20047;-84
2022/04/10 06:09:43;;;;;;;7.03;0.95;;;2.50;99.90;;;;;;4982972;28;20459;-83
2022/04/10 06:12:09;;;;;;;7.35;0.82;;;2.90;99.90;;;;;;4978010;28;20046;-82
2022/04/10 06:14:35;;;;;;;4.22;0.90;;;2.90;99.90;;;;;;4987650;28;20061;-83
2022/04/10 06:17:00;;;;;;;5.15;1.08;;;2.80;99.90;;;;;;4984961;28;20054;-82
2022/04/10 06:19:27;;;;;;;9.93;1.00;;;2.90;99.90;;;;;;4967796;28;20500;-84
2022/04/10 06:21:53;;;;;;;5.28;0.90;;;2.90;99.90;;;;;;4982162;28;20085;-82
2022/04/10 06:24:20;;;;;;;7.72;1.20;;;1.50;99.90;;;;;;4969873;28;20101;-85
2022/04/10 06:26:48;;;;;;;9.55;1.38;;;3.00;99.90;;;;;;4985412;28;20042;-83
2022/04/10 06:29:17;;;;;;;10.65;1.20;;;3.10;99.90;;;;;;4969403;28;20403;-83
2022/04/10 06:31:43;;;;;;;5.60;1.00;;;3.20;99.90;;;;;;4983314;28;20046;-83
2022/04/10 06:34:09;;;;;;;8.05;1.08;;;3.30;99.90;;;;;;4978156;28;20060;-84
2022/04/10 06:36:34;;;;;;;3.08;0.80;;;3.40;99.90;;;;;;4985753;28;20137;-83
2022/04/10 06:39:00;;;;;;;13.25;3.28;;;3.40;99.90;;;;;;4984210;28;20077;-83
2022/04/10 06:41:26;;;;;;;7.72;1.52;;;3.00;99.90;;;;;;4968888;28;20439;-82
2022/04/10 06:43:51;;;;;;;5.38;0.60;;;3.60;99.90;;;;;;4963983;28;20093;-83
2022/04/10 06:46:17;;;;;;;7.93;1.73;;;3.60;99.90;;;;;;4987850;28;20050;-85
2022/04/10 06:48:42;;;;;;;7.85;1.35;;;3.60;99.90;;;;;;4968747;28;20054;-86
2022/04/10 06:51:08;;;;;;;8.88;1.38;;;3.90;99.90;;;;;;4967218;28;20065;-84
2022/04/10 06:53:34;;;;;;;8.45;1.30;;;5.40;99.90;;;;;;4976141;28;20043;-84
2022/04/10 06:55:59;;;;;;;9.68;1.25;;;5.20;99.90;;;;;;4985458;28;20049;-85
2022/04/10 06:58:25;;;;;;;11.25;1.60;;;3.60;99.90;;;;;;4986170;28;20043;-86
2022/04/10 07:00:51;;;;;;;3.55;0.80;;;5.70;99.90;;;;;;4963530;28;20035;-84
2022/04/10 07:03:17;;;;;;;6.32;0.95;;;3.60;99.90;;;;;;4983254;28;20096;-84
2022/04/10 07:05:43;;;;;;;5.60;0.60;;;4.20;99.90;;;;;;4982282;28;20042;-85
2022/04/10 07:08:09;;;;;;;9.55;1.15;;;3.80;99.90;;;;;;4633231;28;10000486;-86
2022/04/10 07:10:36;;;;;;;6.00;0.93;;;3.80;99.90;;;;;;4978988;28;20117;-84
2022/04/10 07:13:03;;;;;;;9.40;2.53;;;4.00;99.90;;;;;;4979293;28;20054;-85
2022/04/10 07:15:29;;;;;;;8.80;3.08;;;3.90;99.90;;;;;;4983671;28;20133;-85
2022/04/10 07:17:56;;;;;;;8.32;1.63;;;4.00;99.90;;;;;;4978880;28;20134;-86
2022/04/10 07:20:22;;;;;;;5.32;0.90;;;3.90;99.90;;;;;;4980677;28;20109;-83
2022/04/10 07:25:31;;;;;;;6.17;0.83;;;4.30;99.90;;;;;;4983317;28;20077;-86
2022/04/10 07:27:57;;;;;;;11.30;1.42;;;4.40;99.90;;;;;;4982866;28;20336;-84
2022/04/10 07:30:23;;;;;;;5.68;0.95;;;4.30;99.90;;;;;;4981410;28;20046;-87
2022/04/10 07:32:56;;;;;;;6.47;2.03;;;4.80;99.90;;;;;;4985447;28;20077;-87
2022/04/10 07:35:22;;;;;;;7.93;1.90;;;4.40;99.90;;;;;;4981495;28;20113;-86
2022/04/10 07:37:48;;;;;;;5.45;0.68;;;4.50;99.90;;;;;;4981458;28;20514;-84
2022/04/10 07:40:14;;;;;;;6.68;1.08;;;4.30;99.90;;;;;;4988413;28;20433;-84
2022/04/10 07:42:44;;;;;;;7.55;1.35;;;4.30;99.90;;;;;;4985420;28;20038;-84
2022/04/10 07:48:01;;;;;;;7.40;1.13;;;4.60;99.90;;;;;;4984258;28;20042;-85
2022/04/10 07:50:28;;;;;;;8.32;2.03;;;4.60;99.90;;;;;;4985189;28;20180;-85
2022/04/10 07:52:55;;;;;;;5.00;0.80;;;4.70;99.90;;;;;;4985285;28;20065;-82
2022/04/10 07:55:21;;;;;;;12.05;1.90;;;5.10;99.90;;;;;;4987170;28;20642;-82
2022/04/10 07:57:48;;;;;;;7.88;1.23;;;4.80;99.90;;;;;;4985050;28;20042;-82
2022/04/10 08:00:14;;;;;;;6.78;1.00;;;4.80;99.90;;;;;;4986023;28;20046;-82
2022/04/10 08:02:42;;;;;;;9.95;1.30;;;4.90;99.90;;;;;;4981906;28;20100;-82
2022/04/10 08:05:08;;;;;;;10.77;1.60;;;5.10;99.90;;;;;;4981672;28;20046;-81
2022/04/10 08:07:34;;;;;;;14.48;2.05;;;6.00;99.90;;;;;;4986232;28;20096;-82
2022/04/10 08:10:00;;;;;;;11.02;2.33;;;5.20;99.90;;;;;;4978076;28;20054;-82
2022/04/10 08:12:27;;;;;;;10.30;1.48;;;4.90;99.90;;;;;;4984736;28;20104;-83
2022/04/10 08:14:53;;;;;;;13.93;2.05;;;5.30;99.90;;;;;;4984689;28;20880;-82
2022/04/10 08:17:18;;;;;;;13.40;1.90;;;5.40;99.90;;;;;;4982775;28;20090;-83
2022/04/10 08:19:44;;;;;;;9.75;1.60;;;5.50;99.90;;;;;;4980186;28;20042;-82
2022/04/10 08:22:10;;;;;;;7.32;1.75;;;5.50;99.90;;;;;;4979309;28;20055;-83
2022/04/10 08:24:35;;;;;;;16.65;3.15;;;5.50;99.90;;;;;;4984939;28;20521;-80
2022/04/10 08:27:03;;;;;;;9.93;1.95;;;7.30;99.90;;;;;;4987715;28;20058;-79
2022/04/10 08:29:29;;;;;;;11.15;2.10;;;5.80;99.90;;;;;;4979912;28;20042;-80
2022/04/10 08:31:54;;;;;;;12.13;1.40;;;5.90;99.90;;;;;;4987271;28;20398;-79
2022/04/10 08:34:20;;;;;;;9.07;1.50;;;6.00;99.90;;;;;;4986399;28;20402;-79
2022/04/10 08:36:46;;;;;;;8.75;1.55;;;6.10;99.90;;;;;;4973986;28;20047;-81
2022/04/10 08:39:11;;;;;;;13.85;1.42;;;6.00;99.90;;;;;;4976574;28;20563;-80
2022/04/10 08:41:38;;;;;;;13.13;1.35;;;6.00;99.90;;;;;;4967997;28;20062;-80
2022/04/10 08:44:04;;;;;;;12.60;2.33;;;6.00;99.90;;;;;;4978862;28;20053;-79
2022/04/10 08:46:31;;;;;;;9.45;1.58;;;6.10;99.90;;;;;;4977783;28;20050;-80
2022/04/10 08:49:00;;;;;;;9.80;1.42;;;6.20;99.90;;;;;;4986965;28;20046;-79
2022/04/10 08:51:28;;;;;;;9.07;1.73;;;6.30;99.90;;;;;;4986246;28;20494;-80
2022/04/10 08:53:54;;;;;;;9.60;1.10;;;6.30;99.90;;;;;;4980861;28;20045;-81
2022/04/10 08:56:22;;;;;;;8.70;0.98;;;6.40;99.90;;;;;;4966833;28;20125;-84
2022/04/10 08:58:50;;;;;;;11.13;1.45;;;6.50;99.90;;;;;;4983510;28;20042;-81
2022/04/10 09:01:22;;;;;;;10.55;1.05;;;6.40;99.90;;;;;;4982939;28;20153;-79
2022/04/10 09:03:48;;;;;;;13.35;1.23;;;6.40;99.90;;;;;;4976818;28;20031;-80
2022/04/10 09:06:14;;;;;;;8.80;1.58;;;6.40;99.90;;;;;;4985327;28;20503;-79
2022/04/10 09:08:40;;;;;;;3.92;1.38;;;7.40;99.90;;;;;;4978228;28;20038;-79
2022/04/10 09:11:10;;;;;;;6.90;1.70;;;6.40;99.90;;;;;;4981324;28;20050;-78
2022/04/10 09:13:47;;;;;;;7.80;1.58;;;6.50;99.90;;;;;;4961871;28;20039;-80
2022/04/10 09:16:17;;;;;;;6.32;1.70;;;6.50;99.90;;;;;;4982835;28;20090;-80
2022/04/10 09:18:53;;;;;;;3.90;0.80;;;6.50;99.90;;;;;;4986407;28;20058;-79
2022/04/10 09:21:30;;;;;;;6.53;1.38;;;6.60;99.90;;;;;;4974499;28;20046;-82
2022/04/10 09:23:56;;;;;;;3.33;0.77;;;6.60;99.90;;;;;;4977843;28;20407;-78
2022/04/10 09:26:22;;;;;;;7.95;1.35;;;6.70;99.90;;;;;;4979851;28;20057;-79
2022/04/10 09:28:49;;;;;;;7.25;1.20;;;8.20;99.90;;;;;;4984906;28;20038;-79
2022/04/10 09:31:26;;;;;;;6.90;1.60;;;7.00;99.90;;;;;;4983466;28;20109;-79
2022/04/10 09:33:54;;;;;;;5.70;1.15;;;6.90;99.90;;;;;;4975382;28;20212;-80
2022/04/10 09:36:34;;;;;;;9.63;1.25;;;7.00;99.90;;;;;;4985998;28;20049;-82
2022/04/10 09:39:02;;;;;;;6.30;0.90;;;7.20;99.90;;;;;;4982847;28;20089;-81
2022/04/10 09:41:27;;;;;;;13.85;1.77;;;7.20;99.90;;;;;;4978826;28;20137;-79
2022/04/10 09:43:53;;;;;;;7.20;1.13;;;7.00;99.90;;;;;;4969552;28;20061;-79
2022/04/10 09:46:18;;;;;;;7.18;1.30;;;6.90;99.90;;;;;;4981854;28;20046;-81
2022/04/10 09:48:44;;;;;;;8.85;1.13;;;6.90;99.90;;;;;;4966484;28;20164;-78
2022/04/10 09:51:12;;;;;;;6.47;1.08;;;6.90;99.90;;;;;;4982955;28;20050;-78
2022/04/10 09:53:38;;;;;;;8.75;2.00;;;6.90;99.90;;;;;;4984183;28;20039;-79
2022/04/10 09:56:05;;;;;;;8.18;1.40;;;6.90;99.90;;;;;;4973347;28;20043;-81
2022/04/10 09:58:32;;;;;;;6.65;1.50;;;7.00;99.90;;;;;;4981608;28;20130;-79
2022/04/10 10:00:59;;;;;;;7.32;0.98;;;7.10;99.90;;;;;;4974029;28;20050;-78
2022/04/10 10:03:28;;;;;;;8.27;1.35;;;7.20;99.90;;;;;;4982804;28;20061;-78
2022/04/10 10:05:55;;;;;;;7.63;1.00;;;7.40;99.90;;;;;;4983166;28;20039;-79
2022/04/10 10:08:22;;;;;;;7.28;1.00;;;7.30;99.90;;;;;;4982482;28;20042;-80
2022/04/10 10:10:48;;;;;;;7.65;1.13;;;7.40;99.90;;;;;;4984003;28;20053;-80
2022/04/10 10:13:14;;;;;;;4.68;1.08;;;7.40;99.90;;;;;;4985454;28;20053;-81
2022/04/10 10:15:42;;;;;;;9.73;0.95;;;7.50;99.90;;;;;;4979945;28;20054;-81
2022/04/10 10:18:12;;;;;;;6.70;0.80;;;7.60;99.90;;;;;;4962509;28;20054;-81
2022/04/10 10:20:40;;;;;;;11.52;1.73;;;7.60;99.90;;;;;;4977413;28;20043;-81
2022/04/10 10:23:11;;;;;;;11.13;4.88;;;7.70;99.90;;;;;;4959521;28;20141;-83
2022/04/10 10:25:59;;;;;;;8.05;1.17;;;7.50;99.90;;;;;;4981114;28;20098;-81
2022/04/10 10:28:55;;;;;;;4.05;1.13;;;7.40;99.90;;;;;;4984749;28;20050;-81
2022/04/10 10:31:28;;;;;;;11.15;1.40;;;7.30;99.90;;;;;;4979899;28;20058;-80
2022/04/10 10:34:02;;;;;;;4.28;1.05;;;7.20;99.90;;;;;;4977423;28;20507;-81
2022/04/10 10:36:28;;;;;;;10.80;1.00;;;7.30;99.90;;;;;;4979671;28;20050;-80
2022/04/10 10:38:55;;;;;;;11.85;1.60;;;7.40;99.90;;;;;;4983423;28;20340;-80
2022/04/10 10:41:24;;;;;;;5.95;1.30;;;7.50;99.90;;;;;;4977556;28;20081;-79
2022/04/10 10:43:50;;;;;;;11.50;2.92;;;7.60;99.90;;;;;;4983897;28;20581;-80
2022/04/10 10:46:26;;;;;;;13.52;1.95;;;7.70;99.90;;;;;;4980742;28;20390;-80
2022/04/10 10:49:16;;;;;;;8.52;1.20;;;7.90;99.90;;;;;;4984533;28;20054;-79
2022/04/10 10:51:43;;;;;;;11.20;2.20;;;8.10;99.90;;;;;;4990173;28;20062;-79
2022/04/10 10:54:21;;;;;;;7.40;2.17;;;8.10;99.90;;;;;;4981766;28;20043;-79
2022/04/10 10:56:50;;;;;;;6.63;1.20;;;8.10;99.90;;;;;;4980197;28;20053;-79
2022/04/10 10:59:37;;;;;;;4.53;1.02;;;7.90;99.90;;;;;;4977228;28;20090;-80
2022/04/10 11:02:14;;;;;;;18.48;1.50;;;7.90;99.90;;;;;;4976888;28;20309;-79
2022/04/10 11:04:50;;;;;;;11.57;1.27;;;7.90;99.90;;;;;;4977529;28;20070;-78
2022/04/10 11:07:19;;;;;;;5.75;1.25;;;9.10;99.90;;;;;;4979333;28;20811;-79
2022/04/10 11:09:58;;;;;;;6.05;1.23;;;7.90;99.90;;;;;;4979561;28;20069;-80
2022/04/10 11:12:29;;;;;;;5.93;0.90;;;7.90;99.90;;;;;;4984299;28;20058;-80
2022/04/10 11:14:56;;;;;;;8.07;0.90;;;8.00;99.90;;;;;;4980719;28;20101;-80
2022/04/10 11:17:32;;;;;;;9.57;1.52;;;8.00;99.90;;;;;;4981297;28;20108;-80
2022/04/10 11:20:03;;;;;;;8.55;1.00;;;8.00;99.90;;;;;;4959914;28;20145;-79
2022/04/10 11:22:38;;;;;;;7.20;1.08;;;7.90;99.90;;;;;;4977627;28;20129;-79
2022/04/10 11:25:06;;;;;;;9.10;1.05;;;7.90;99.90;;;;;;4980738;28;20062;-79
2022/04/10 11:27:44;;;;;;;9.18;0.80;;;8.00;99.90;;;;;;4977465;28;20439;-79
2022/04/10 11:30:12;;;;;;;7.90;1.55;;;8.20;99.90;;;;;;4980662;28;20082;-80
2022/04/10 11:32:43;;;;;;;6.47;1.65;;;8.40;99.90;;;;;;4962673;28;20491;-79
2022/04/10 11:35:27;;;;;;;3.75;0.82;;;8.60;99.90;;;;;;4984625;28;20051;-79
2022/04/10 11:37:54;;;;;;;5.43;0.77;;;8.80;99.90;;;;;;4989188;28;20120;-79
2022/04/10 11:40:26;;;;;;;13.20;1.63;;;8.90;99.90;;;;;;4984369;28;20078;-80
2022/04/10 11:42:54;;;;;;;6.00;1.15;;;8.90;99.90;;;;;;4960355;28;20125;-79
2022/04/10 11:45:21;;;;;;;10.15;1.33;;;8.90;99.90;;;;;;4984529;28;20438;-79
2022/04/10 11:47:48;;;;;;;7.32;1.10;;;8.80;99.90;;;;;;4987219;28;20329;-80
2022/04/10 11:50:13;;;;;;;3.85;0.93;;;8.80;99.90;;;;;;4986998;28;20401;-79
2022/04/10 11:52:56;;;;;;;11.30;3.08;;;9.10;99.90;;;;;;4981313;28;20054;-81
2022/04/10 11:55:27;;;;;;;6.97;1.17;;;9.20;99.90;;;;;;4985276;28;20117;-79
2022/04/10 11:57:52;;;;;;;4.13;0.82;;;9.20;99.90;;;;;;4983904;28;20051;-80
2022/04/10 12:00:18;;;;;;;9.35;2.13;;;9.20;99.90;;;;;;4988239;28;20038;-82
2022/04/10 12:02:44;;;;;;;12.93;5.13;;;9.30;99.90;;;;;;4977339;28;20054;-81
2022/04/10 12:05:09;;;;;;;5.88;1.00;;;9.40;99.90;;;;;;4983954;28;20043;-81
2022/04/10 12:07:39;;;;;;;7.35;1.15;;;9.60;99.90;;;;;;4986407;28;20092;-81
2022/04/10 12:10:05;;;;;;;6.93;0.98;;;9.70;99.90;;;;;;4987179;28;20125;-82
2022/04/10 12:12:38;;;;;;;4.70;0.47;;;9.90;99.90;;;;;;4983596;28;20133;-83
2022/04/10 12:15:17;;;;;;;3.58;1.10;;;9.90;99.90;;;;;;4976073;28;20047;-80
2022/04/10 12:17:43;;;;;;;10.65;3.50;;;9.70;99.90;;;;;;4985186;28;20656;-80
2022/04/10 12:20:09;;;;;;;4.53;0.70;;;11.00;99.90;;;;;;4980469;28;20042;-80
2022/04/10 12:22:35;;;;;;;4.70;1.02;;;9.80;99.90;;;;;;4949074;28;20050;-80
2022/04/10 12:25:01;;;;;;;5.30;0.68;;;9.70;99.90;;;;;;4981996;28;20136;-81
2022/04/10 12:27:27;;;;;;;7.70;1.10;;;9.90;99.90;;;;;;4958819;28;20251;-83
2022/04/10 12:29:55;;;;;;;11.07;1.35;;;9.80;99.90;;;;;;4981053;28;20039;-81
2022/04/10 12:32:21;;;;;;;4.75;0.43;;;9.80;99.90;;;;;;4975197;28;20046;-79
2022/04/10 12:34:46;;;;;;;7.18;0.95;;;9.80;99.90;;;;;;4978097;28;20042;-80
2022/04/10 12:37:13;;;;;;;4.18;0.60;;;9.70;99.90;;;;;;4978718;28;20050;-80
2022/04/10 12:39:41;;;;;;;4.30;0.63;;;9.70;99.60;;;;;;4980109;28;20030;-80
2022/04/10 12:42:13;;;;;;;4.97;0.73;;;9.90;99.90;;;;;;4982186;28;20158;-82
2022/04/10 12:44:40;;;;;;;8.38;0.85;;;10.00;99.70;;;;;;4983325;28;20042;-81
2022/04/10 12:47:07;;;;;;;4.65;0.80;;;10.40;99.90;;;;;;4964856;28;20494;-80
2022/04/10 12:49:33;;;;;;;3.35;0.88;;;9.80;99.90;;;;;;4983645;28;20042;-80
2022/04/10 12:52:03;;;;;;;9.48;1.10;;;9.60;99.90;;;;;;4983164;28;20053;-82
2022/04/10 12:54:33;;;;;;;4.70;0.80;;;9.60;99.90;;;;;;4985098;28;21241;-81
2022/04/10 12:56:58;;;;;;;2.78;1.00;;;9.80;99.90;;;;;;4983405;28;20046;-81
2022/04/10 12:59:54;;;;;;;5.32;0.75;;;11.80;99.90;;;;;;4969091;28;20661;-81